Vincent, Ohio
Current Conditions -  °F | °C
As of 1:03 AM on Wednesday 28 Jan 2015 (Local Time) from KPKB Reporting Station
Scattered Clouds Scattered Clouds  
Wind Chill: 17°   Ceiling: Unl
Heat Index: 17°   Visibility: 10mi
Dew Point: 10°   Wind: 0mph
Humidity: 74%   Direction: NA
Pressure: 30.23"   Gusts: NA
Location:  39.37°N, 81.66°W
Report Text: KPKB 280603Z AUTO 00000KT 10SM SCT020 M08/M12 A3023 RMK AO2 T10831122
Loading
Personal Weather Stations






























Interactive Weather Map New forecast layout! Learn more

10-Day Weather Forecast

Advertisements
Track Severe Weather on mobile